createdAt,value
2018-05-24T00:02:15.248Z,17.82
2018-05-24T00:04:42.880Z,17.66
2018-05-24T00:07:10.492Z,17.76
2018-05-24T00:09:38.576Z,17.64
2018-05-24T00:12:06.199Z,17.80
2018-05-24T00:14:33.801Z,17.83
2018-05-24T00:17:01.483Z,17.64
2018-05-24T00:19:29.111Z,17.71
2018-05-24T00:21:56.757Z,17.82
2018-05-24T00:24:24.381Z,17.72
2018-05-24T00:26:52.397Z,17.59
2018-05-24T00:29:20.003Z,17.55
2018-05-24T00:31:47.622Z,17.51
2018-05-24T00:34:15.305Z,17.48
2018-05-24T00:36:42.923Z,17.46
2018-05-24T00:39:10.619Z,17.42
2018-05-24T00:41:38.227Z,17.40
2018-05-24T00:44:06.074Z,17.41
2018-05-24T00:46:33.674Z,17.38
2018-05-24T00:49:01.271Z,17.36
2018-05-24T00:51:28.900Z,17.26
2018-05-24T00:53:56.664Z,17.26
2018-05-24T00:56:24.295Z,17.25
2018-05-24T00:58:51.899Z,17.22
2018-05-24T01:01:19.700Z,17.22
2018-05-24T01:03:47.304Z,17.23
2018-05-24T01:06:14.911Z,17.18
2018-05-24T01:08:42.542Z,17.22
2018-05-24T01:11:12.834Z,17.19
2018-05-24T01:13:40.460Z,17.19
2018-05-24T01:16:08.072Z,17.12
2018-05-24T01:18:35.709Z,17.15
2018-05-24T01:21:03.298Z,17.07
2018-05-24T01:23:30.898Z,17.07
2018-05-24T01:25:58.531Z,17.11
2018-05-24T01:28:26.140Z,17.15
2018-05-24T01:30:53.793Z,17.17
2018-05-24T01:33:21.399Z,17.19
2018-05-24T01:35:49.161Z,17.18
2018-05-24T01:38:16.754Z,17.20
2018-05-24T01:40:44.350Z,17.21
2018-05-24T01:43:11.975Z,17.22
2018-05-24T01:45:39.596Z,17.18
2018-05-24T01:48:07.250Z,17.12
2018-05-24T01:50:34.856Z,17.14
2018-05-24T01:53:02.498Z,17.15
2018-05-24T01:55:30.104Z,17.14
2018-05-24T01:57:57.707Z,17.11
2018-05-24T02:00:25.347Z,17.12
2018-05-24T02:02:52.956Z,17.11
2018-05-24T02:05:20.588Z,17.07
2018-05-24T02:07:48.187Z,16.98
2018-05-24T02:10:15.832Z,17.03
2018-05-24T02:12:43.431Z,17.06
2018-05-24T02:15:11.039Z,17.05
2018-05-24T02:17:38.726Z,17.03
2018-05-24T02:20:06.329Z,16.97
2018-05-24T02:22:33.987Z,17.02
2018-05-24T02:25:02.418Z,17.05
2018-05-24T02:27:30.243Z,17.05
2018-05-24T02:29:57.855Z,17.03
2018-05-24T02:32:25.475Z,17.01
2018-05-24T02:34:53.107Z,17.04
2018-05-24T02:37:20.706Z,17.07
2018-05-24T02:39:48.336Z,17.09
2018-05-24T02:42:15.950Z,17.10
2018-05-24T02:44:43.770Z,17.08
2018-05-24T02:47:11.390Z,17.08
2018-05-24T02:49:39.096Z,17.08
2018-05-24T02:52:06.727Z,17.08
2018-05-24T02:54:34.335Z,17.05
2018-05-24T02:57:01.974Z,17.03
2018-05-24T02:59:29.581Z,17.00
2018-05-24T03:01:57.412Z,17.00
2018-05-24T03:04:25.000Z,17.03
2018-05-24T03:06:52.624Z,16.98
2018-05-24T03:09:20.264Z,16.97
2018-05-24T03:11:47.870Z,16.98
2018-05-24T03:14:15.508Z,16.97
2018-05-24T03:16:43.128Z,16.95
2018-05-24T03:19:11.008Z,16.96
2018-05-24T03:21:38.618Z,17.00
2018-05-24T03:24:06.226Z,17.01
2018-05-24T03:26:33.848Z,16.98
2018-05-24T03:29:01.464Z,16.86
2018-05-24T03:31:29.081Z,16.75
2018-05-24T03:33:56.696Z,16.68
2018-05-24T03:36:24.579Z,16.81
2018-05-24T03:38:52.190Z,16.67
2018-05-24T03:41:19.801Z,16.62
2018-05-24T03:43:47.550Z,16.56
2018-05-24T03:46:15.094Z,16.61
2018-05-24T03:48:42.914Z,16.57
2018-05-24T03:51:11.482Z,16.50
2018-05-24T03:53:39.075Z,16.37
2018-05-24T03:56:06.703Z,16.44
2018-05-24T03:58:34.299Z,16.52
2018-05-24T04:01:13.512Z,16.54
2018-05-24T04:03:49.903Z,16.55
2018-05-24T04:06:17.532Z,16.49
2018-05-24T04:08:45.152Z,16.68
2018-05-24T04:11:12.797Z,16.59
2018-05-24T04:13:40.409Z,16.52
2018-05-24T04:16:08.030Z,16.55
2018-05-24T04:18:35.661Z,16.55
2018-05-24T04:21:03.258Z,16.72
2018-05-24T04:23:31.142Z,16.70
2018-05-24T04:25:58.784Z,16.58
2018-05-24T04:28:26.381Z,16.55
2018-05-24T04:30:54.017Z,16.63
2018-05-24T04:33:21.617Z,16.64
2018-05-24T04:35:49.239Z,16.58
2018-05-24T04:38:16.850Z,16.59
2018-05-24T04:40:44.511Z,16.58
2018-05-24T04:43:12.104Z,16.54
2018-05-24T04:45:39.711Z,16.60
2018-05-24T04:48:07.351Z,16.60
2018-05-24T04:50:34.955Z,16.63
2018-05-24T04:53:02.598Z,16.64
2018-05-24T04:55:30.191Z,16.59
2018-05-24T04:57:57.823Z,16.54
2018-05-24T05:00:25.417Z,16.64
2018-05-24T05:02:53.086Z,16.49
2018-05-24T05:05:20.671Z,16.43
2018-05-24T05:07:48.314Z,16.44
2018-05-24T05:10:15.937Z,16.39
2018-05-24T05:12:43.563Z,16.42
2018-05-24T05:15:11.215Z,16.30
2018-05-24T05:17:38.852Z,16.34
2018-05-24T05:20:06.461Z,16.40
2018-05-24T05:22:34.106Z,16.45
2018-05-24T05:25:01.718Z,16.46
2018-05-24T05:27:29.351Z,16.54
2018-05-24T05:29:56.963Z,16.60
2018-05-24T05:32:24.618Z,16.53
2018-05-24T05:34:52.228Z,16.44
2018-05-24T05:37:19.837Z,16.37
2018-05-24T05:39:47.523Z,16.33
2018-05-24T05:42:15.138Z,16.34
2018-05-24T05:44:42.782Z,16.34
2018-05-24T05:47:10.396Z,16.51
2018-05-24T05:49:38.123Z,16.42
2018-05-24T05:52:05.763Z,16.42
2018-05-24T05:54:33.341Z,16.35
2018-05-24T05:57:00.976Z,16.30
2018-05-24T05:59:28.584Z,16.29
2018-05-24T06:01:56.276Z,16.31
2018-05-24T06:04:23.842Z,16.35
2018-05-24T06:06:51.635Z,16.36
2018-05-24T06:09:19.251Z,16.34
2018-05-24T06:11:46.852Z,16.24
2018-05-24T06:14:14.474Z,16.23
2018-05-24T06:16:42.083Z,16.22
2018-05-24T06:19:09.754Z,16.17
2018-05-24T06:21:37.385Z,16.06
2018-05-24T06:24:05.038Z,16.13
2018-05-24T06:26:32.642Z,16.19
2018-05-24T06:29:00.243Z,16.16
2018-05-24T06:31:27.878Z,16.12
2018-05-24T06:33:55.476Z,16.18
2018-05-24T06:36:23.106Z,16.19
2018-05-24T06:38:50.752Z,16.11
2018-05-24T06:41:18.703Z,16.18
2018-05-24T06:43:46.297Z,16.23
2018-05-24T06:46:13.897Z,16.25
2018-05-24T06:48:41.533Z,16.27
2018-05-24T06:51:09.144Z,16.29
2018-05-24T06:53:36.780Z,16.30
2018-05-24T06:56:05.444Z,16.39
2018-05-24T06:58:33.376Z,16.39
2018-05-24T07:01:00.985Z,16.32
2018-05-24T07:03:28.651Z,16.29
2018-05-24T07:05:56.304Z,16.30
2018-05-24T07:08:23.920Z,16.31
2018-05-24T07:10:51.554Z,16.35
2018-05-24T07:13:19.162Z,16.40
2018-05-24T07:15:46.831Z,16.37
2018-05-24T07:18:14.469Z,16.40
2018-05-24T07:20:42.088Z,16.44
2018-05-24T07:23:09.706Z,16.36
2018-05-24T07:25:37.314Z,16.26
2018-05-24T07:28:04.926Z,16.31
2018-05-24T07:30:32.526Z,16.26
2018-05-24T07:33:00.156Z,16.31
2018-05-24T07:35:29.505Z,16.37
2018-05-24T07:37:57.107Z,16.35
2018-05-24T07:40:24.728Z,16.54
2018-05-24T07:42:52.327Z,16.34
2018-05-24T07:45:19.951Z,16.49
2018-05-24T07:47:47.571Z,16.40
2018-05-24T07:50:15.171Z,16.49
2018-05-24T07:52:42.798Z,16.59
2018-05-24T07:55:10.429Z,16.60
2018-05-24T07:57:38.047Z,16.55
2018-05-24T08:00:05.675Z,16.59
2018-05-24T08:02:33.293Z,16.65
2018-05-24T08:05:00.920Z,16.71
2018-05-24T08:07:28.524Z,16.75
2018-05-24T08:09:56.169Z,16.79
2018-05-24T08:12:23.763Z,16.87
2018-05-24T08:14:51.771Z,16.86
2018-05-24T08:17:19.344Z,16.93
2018-05-24T08:19:46.954Z,16.98
2018-05-24T08:22:32.641Z,17.09
2018-05-24T08:25:00.253Z,17.26
2018-05-24T08:27:28.385Z,17.57
2018-05-24T08:29:56.001Z,17.80
2018-05-24T08:32:23.607Z,18.12
2018-05-24T08:34:51.235Z,18.31
2018-05-24T08:37:19.002Z,18.48
2018-05-24T08:39:46.567Z,18.74
2018-05-24T08:42:14.167Z,18.92
2018-05-24T08:44:41.809Z,18.74
2018-05-24T08:47:09.438Z,18.78
2018-05-24T08:49:37.043Z,19.01
2018-05-24T08:52:04.694Z,19.16
2018-05-24T08:54:32.380Z,19.17
2018-05-24T08:57:00.330Z,19.35
2018-05-24T08:59:28.266Z,19.40
2018-05-24T09:01:56.270Z,19.66
2018-05-24T09:04:24.228Z,19.71
2018-05-24T09:06:51.859Z,19.62
2018-05-24T09:09:19.655Z,19.52
2018-05-24T09:11:47.262Z,19.80
2018-05-24T09:14:14.878Z,19.89
2018-05-24T09:16:42.467Z,20.10
2018-05-24T09:19:10.123Z,20.09
2018-05-24T09:21:37.726Z,19.98
2018-05-24T09:24:05.593Z,19.95
2018-05-24T09:26:33.247Z,19.95
2018-05-24T09:29:00.854Z,19.92
2018-05-24T09:31:28.523Z,19.97
2018-05-24T09:33:56.262Z,19.86
2018-05-24T09:36:24.478Z,20.06
2018-05-24T09:38:51.982Z,20.12
2018-05-24T09:41:19.587Z,20.21
2018-05-24T09:43:47.426Z,20.45
2018-05-24T09:46:15.020Z,20.62
2018-05-24T09:48:42.860Z,20.59
2018-05-24T09:51:10.489Z,20.79
2018-05-24T09:53:38.125Z,20.71
2018-05-24T09:56:05.726Z,21.01
2018-05-24T09:58:33.378Z,21.26
2018-05-24T10:01:00.981Z,21.41
2018-05-24T10:03:28.598Z,21.29
2018-05-24T10:05:56.231Z,21.53
2018-05-24T10:08:23.837Z,21.48
2018-05-24T10:10:51.478Z,21.53
2018-05-24T10:13:19.084Z,21.73
2018-05-24T10:15:47.111Z,21.76
2018-05-24T10:18:14.727Z,21.68
2018-05-24T10:20:42.353Z,21.60
2018-05-24T10:23:09.973Z,21.73
2018-05-24T10:25:37.563Z,21.81
2018-05-24T10:28:05.225Z,21.87
2018-05-24T10:30:32.881Z,21.79
2018-05-24T10:33:01.005Z,21.90
2018-05-24T10:35:28.624Z,21.94
2018-05-24T10:37:56.231Z,22.13
2018-05-24T10:40:23.861Z,22.16
2018-05-24T10:42:51.467Z,21.98
2018-05-24T10:45:19.189Z,21.89
2018-05-24T10:47:46.786Z,21.76
2018-05-24T10:50:14.429Z,21.44
2018-05-24T10:52:42.093Z,21.31
2018-05-24T10:55:09.700Z,21.04
2018-05-24T10:57:37.319Z,20.81
2018-05-24T11:00:04.914Z,20.68
2018-05-24T11:02:32.546Z,20.53
2018-05-24T11:05:00.160Z,20.35
2018-05-24T11:07:27.870Z,20.18
2018-05-24T11:09:55.817Z,19.99
2018-05-24T11:12:23.419Z,19.95
2018-05-24T11:14:51.101Z,19.68
2018-05-24T11:17:18.716Z,19.74
2018-05-24T11:19:46.334Z,19.61
2018-05-24T11:22:13.961Z,19.49
2018-05-24T11:24:41.908Z,19.27
2018-05-24T11:27:10.944Z,19.18
2018-05-24T11:29:38.797Z,19.03
2018-05-24T11:32:06.510Z,19.00
2018-05-24T11:34:34.170Z,18.81
2018-05-24T11:37:01.812Z,18.72
2018-05-24T11:39:29.404Z,18.60
2018-05-24T11:41:57.060Z,18.58
2018-05-24T11:44:24.820Z,18.56
2018-05-24T11:46:52.455Z,18.54
2018-05-24T11:49:20.072Z,18.50
2018-05-24T11:51:47.674Z,18.53
2018-05-24T11:54:15.302Z,18.52
2018-05-24T11:56:42.913Z,18.55
2018-05-24T11:59:10.550Z,18.55
2018-05-24T12:01:38.150Z,18.56
2018-05-24T12:04:07.773Z,18.57
2018-05-24T12:06:35.428Z,18.64
2018-05-24T12:09:03.030Z,18.67
2018-05-24T12:11:30.682Z,18.76
2018-05-24T12:13:58.286Z,18.83
2018-05-24T12:16:26.033Z,18.88
2018-05-24T12:18:53.667Z,18.93
2018-05-24T12:21:21.261Z,18.96
2018-05-24T12:23:49.501Z,19.01
2018-05-24T12:26:17.234Z,19.06
2018-05-24T12:28:44.985Z,19.19
2018-05-24T12:31:12.614Z,19.15
2018-05-24T12:33:40.221Z,19.13
2018-05-24T12:36:07.877Z,19.18
2018-05-24T12:38:35.522Z,19.24
2018-05-24T12:41:03.139Z,19.33
2018-05-24T12:43:30.767Z,19.32
2018-05-24T12:45:58.369Z,19.38
2018-05-24T12:48:26.054Z,19.41
2018-05-24T12:50:53.712Z,19.56
2018-05-24T12:53:21.339Z,19.89
2018-05-24T12:55:49.051Z,20.14
2018-05-24T12:58:17.264Z,20.54
2018-05-24T13:00:46.373Z,20.71
2018-05-24T13:03:14.112Z,21.01
2018-05-24T13:05:43.342Z,21.92
2018-05-24T13:08:12.170Z,22.09
2018-05-24T13:10:39.924Z,22.14
2018-05-24T13:13:07.661Z,21.98
2018-05-24T13:15:35.253Z,22.29
2018-05-24T13:18:03.534Z,23.61
2018-05-24T13:20:31.155Z,25.01
2018-05-24T13:22:58.768Z,25.69
2018-05-24T13:25:26.407Z,25.84
2018-05-24T13:27:54.049Z,25.35
2018-05-24T13:30:21.643Z,25.28
2018-05-24T13:32:49.251Z,24.90
2018-05-24T13:35:16.847Z,24.64
2018-05-24T13:37:44.478Z,24.80
2018-05-24T13:40:12.090Z,24.81
2018-05-24T13:42:39.746Z,24.81
2018-05-24T13:45:07.377Z,24.14
2018-05-24T13:47:35.040Z,23.84
2018-05-24T13:50:02.958Z,23.99
2018-05-24T13:52:30.567Z,24.58
2018-05-24T13:54:58.231Z,24.73
2018-05-24T13:57:37.689Z,24.66
2018-05-24T14:00:05.378Z,24.66
2018-05-24T14:02:33.306Z,24.59
2018-05-24T14:05:00.898Z,24.24
2018-05-24T14:07:28.708Z,24.33
2018-05-24T14:09:56.338Z,24.33
2018-05-24T14:12:23.925Z,24.45
2018-05-24T14:14:51.574Z,24.39
2018-05-24T14:17:19.171Z,24.23
2018-05-24T14:19:46.786Z,24.07
2018-05-24T14:22:14.413Z,23.79
2018-05-24T14:24:42.022Z,23.70
2018-05-24T14:27:09.635Z,23.87
2018-05-24T14:29:37.238Z,23.62
2018-05-24T14:32:05.226Z,23.72
2018-05-24T14:34:32.841Z,23.57
2018-05-24T14:37:00.446Z,23.21
2018-05-24T14:39:28.281Z,23.16
2018-05-24T14:41:55.876Z,22.74
2018-05-24T14:44:23.489Z,22.54
2018-05-24T14:46:51.108Z,22.31
2018-05-24T14:49:19.305Z,22.54
2018-05-24T14:51:46.911Z,22.45
2018-05-24T14:54:14.538Z,22.38
2018-05-24T14:56:42.284Z,22.30
2018-05-24T14:59:09.898Z,22.43
2018-05-24T15:01:37.512Z,22.48
2018-05-24T15:04:05.117Z,22.28
2018-05-24T15:06:32.785Z,22.25
2018-05-24T15:09:00.416Z,22.21
2018-05-24T15:11:28.009Z,22.24
2018-05-24T15:13:55.629Z,22.37
2018-05-24T15:16:23.228Z,22.44
2018-05-24T15:18:50.838Z,22.44
2018-05-24T15:21:18.434Z,22.40
2018-05-24T15:23:46.061Z,22.40
2018-05-24T15:26:13.722Z,22.27
2018-05-24T15:28:41.322Z,22.42
2018-05-24T15:31:08.954Z,22.30
2018-05-24T15:33:36.738Z,22.28
2018-05-24T15:36:04.375Z,22.26
2018-05-24T15:38:31.973Z,22.11
2018-05-24T15:40:59.612Z,22.13
2018-05-24T15:43:27.226Z,21.86
2018-05-24T15:45:54.858Z,21.65
2018-05-24T15:48:22.476Z,21.27
2018-05-24T15:50:50.115Z,21.28
2018-05-24T15:53:17.763Z,21.46
2018-05-24T15:55:45.369Z,21.62
2018-05-24T15:58:13.293Z,21.82
2018-05-24T16:00:41.043Z,21.92
2018-05-24T16:03:08.633Z,22.14
2018-05-24T16:05:36.263Z,22.16
2018-05-24T16:08:03.853Z,22.20
2018-05-24T16:10:32.108Z,22.22
2018-05-24T16:12:59.707Z,22.17
2018-05-24T16:15:27.594Z,22.11
2018-05-24T16:17:55.190Z,22.22
2018-05-24T16:20:22.795Z,22.04
2018-05-24T16:22:50.413Z,21.84
2018-05-24T16:25:18.145Z,21.73
2018-05-24T16:27:45.802Z,21.48
2018-05-24T16:30:13.419Z,21.47
2018-05-24T16:32:41.066Z,21.41
2018-05-24T16:35:08.675Z,21.27
2018-05-24T16:37:36.299Z,21.29
2018-05-24T16:40:03.920Z,21.27
2018-05-24T16:42:31.507Z,21.39
2018-05-24T16:44:59.129Z,21.43
2018-05-24T16:47:26.733Z,21.46
2018-05-24T16:49:54.659Z,21.57
2018-05-24T16:52:22.273Z,21.66
2018-05-24T16:54:49.895Z,21.66
2018-05-24T16:57:17.654Z,21.68
2018-05-24T16:59:45.283Z,21.54
2018-05-24T17:02:12.904Z,21.64
2018-05-24T17:04:40.494Z,21.62
2018-05-24T17:07:08.299Z,21.80
2018-05-24T17:09:35.909Z,21.88
2018-05-24T17:12:03.518Z,21.91
2018-05-24T17:14:31.176Z,21.90
2018-05-24T17:16:58.772Z,21.91
2018-05-24T17:19:26.414Z,21.90
2018-05-24T17:21:54.003Z,21.86
2018-05-24T17:24:21.654Z,21.87
2018-05-24T17:26:49.278Z,21.73
2018-05-24T17:29:17.168Z,21.55
2018-05-24T17:31:44.825Z,21.57
2018-05-24T17:34:12.424Z,21.54
2018-05-24T17:36:40.054Z,21.52
2018-05-24T17:39:07.651Z,21.56
2018-05-24T17:41:35.336Z,21.54
2018-05-24T17:44:02.954Z,21.50
2018-05-24T17:46:30.586Z,21.36
2018-05-24T17:48:58.179Z,21.23
2018-05-24T17:51:25.807Z,21.42
2018-05-24T17:53:53.430Z,22.14
2018-05-24T17:56:21.063Z,23.16
2018-05-24T17:58:48.660Z,23.77
2018-05-24T18:01:16.449Z,23.88
2018-05-24T18:03:44.055Z,23.92
2018-05-24T18:06:11.658Z,23.66
2018-05-24T18:08:39.277Z,23.25
2018-05-24T18:11:06.892Z,22.94
2018-05-24T18:13:34.637Z,22.67
2018-05-24T18:16:02.249Z,22.13
2018-05-24T18:18:29.852Z,22.01
2018-05-24T18:20:57.495Z,21.99
2018-05-24T18:23:25.099Z,21.82
2018-05-24T18:25:52.723Z,21.59
2018-05-24T18:28:20.343Z,21.26
2018-05-24T18:30:48.017Z,21.14
2018-05-24T18:33:15.614Z,20.99
2018-05-24T18:35:43.271Z,20.95
2018-05-24T18:38:10.988Z,20.92
2018-05-24T18:40:38.593Z,20.83
2018-05-24T18:43:06.219Z,20.67
2018-05-24T18:45:33.814Z,20.59
2018-05-24T18:48:01.738Z,20.49
2018-05-24T18:50:29.404Z,20.47
2018-05-24T18:52:57.040Z,20.36
2018-05-24T18:55:24.671Z,20.33
2018-05-24T18:57:52.370Z,20.26
2018-05-24T19:00:20.027Z,20.19
2018-05-24T19:02:47.630Z,20.18
2018-05-24T19:05:15.673Z,20.08
2018-05-24T19:07:43.273Z,19.96
2018-05-24T19:10:10.875Z,19.95
2018-05-24T19:12:38.510Z,19.85
2018-05-24T19:15:06.125Z,19.82
2018-05-24T19:17:33.744Z,19.81
2018-05-24T19:20:01.348Z,19.78
2018-05-24T19:22:29.027Z,19.69
2018-05-24T19:24:56.635Z,19.63
2018-05-24T19:27:24.253Z,19.55
2018-05-24T19:29:51.884Z,19.54
2018-05-24T19:32:19.489Z,19.43
2018-05-24T19:34:47.130Z,19.44
2018-05-24T19:37:14.734Z,19.42
2018-05-24T19:39:42.333Z,19.34
2018-05-24T19:42:09.966Z,19.13
2018-05-24T19:44:37.570Z,18.93
2018-05-24T19:47:05.562Z,18.94
2018-05-24T19:49:33.169Z,18.90
2018-05-24T19:52:00.932Z,18.90
2018-05-24T19:54:28.550Z,18.88
2018-05-24T19:56:56.155Z,18.86
2018-05-24T19:59:23.961Z,18.91
2018-05-24T20:01:51.562Z,18.81
2018-05-24T20:04:19.242Z,18.81
2018-05-24T20:06:48.671Z,18.81
2018-05-24T20:09:16.299Z,18.73
2018-05-24T20:11:43.996Z,18.71
2018-05-24T20:14:11.663Z,18.65
2018-05-24T20:16:39.302Z,18.65
2018-05-24T20:19:06.944Z,18.62
2018-05-24T20:21:35.714Z,18.55
2018-05-24T20:24:03.995Z,18.54
2018-05-24T20:26:31.795Z,18.52
2018-05-24T20:28:59.428Z,18.51
2018-05-24T20:31:27.370Z,18.48
2018-05-24T20:33:54.967Z,18.41
2018-05-24T20:36:22.927Z,18.40
2018-05-24T20:38:50.527Z,18.37
2018-05-24T20:41:18.141Z,18.33
2018-05-24T20:43:45.901Z,18.25
2018-05-24T20:46:13.519Z,18.23
2018-05-24T20:48:41.219Z,18.18
2018-05-24T20:51:08.848Z,18.18
2018-05-24T20:53:36.449Z,18.13
2018-05-24T20:56:04.343Z,18.11
2018-05-24T20:58:31.950Z,18.05
2018-05-24T21:00:59.777Z,18.08
2018-05-24T21:03:27.532Z,18.06
2018-05-24T21:05:55.788Z,18.00
2018-05-24T21:08:23.406Z,18.01
2018-05-24T21:10:51.031Z,17.98
2018-05-24T21:13:18.840Z,17.92
2018-05-24T21:15:46.570Z,17.85
2018-05-24T21:18:14.223Z,17.85
2018-05-24T21:20:41.843Z,17.89
2018-05-24T21:23:09.447Z,17.78
2018-05-24T21:25:37.067Z,17.72
2018-05-24T21:28:04.680Z,17.74
2018-05-24T21:30:32.277Z,17.74
2018-05-24T21:32:59.935Z,17.75
2018-05-24T21:35:27.533Z,17.76
2018-05-24T21:37:55.148Z,17.74
2018-05-24T21:40:22.782Z,17.73
2018-05-24T21:42:50.415Z,17.68
2018-05-24T21:45:18.062Z,17.70
2018-05-24T21:47:45.671Z,17.73
2018-05-24T21:50:13.265Z,17.71
2018-05-24T21:52:40.951Z,17.72
2018-05-24T21:55:08.550Z,17.64
2018-05-24T21:57:36.199Z,17.68
2018-05-24T22:00:03.803Z,17.64
2018-05-24T22:02:31.485Z,17.64
2018-05-24T22:04:59.096Z,17.64
2018-05-24T22:07:26.757Z,17.61
2018-05-24T22:09:54.348Z,17.65
2018-05-24T22:12:21.947Z,17.62
2018-05-24T22:14:49.802Z,17.61
2018-05-24T22:17:17.410Z,17.57
2018-05-24T22:19:45.006Z,17.56
2018-05-24T22:22:12.667Z,17.58
2018-05-24T22:24:40.270Z,17.49
2018-05-24T22:27:08.095Z,17.46
2018-05-24T22:29:35.722Z,17.45
2018-05-24T22:32:03.322Z,17.45
2018-05-24T22:34:30.982Z,17.37
2018-05-24T22:36:58.626Z,17.36
2018-05-24T22:39:26.295Z,17.34
2018-05-24T22:41:53.920Z,17.32
2018-05-24T22:44:21.538Z,17.31
2018-05-24T22:46:49.179Z,17.33
2018-05-24T22:49:16.776Z,17.32
2018-05-24T22:51:44.827Z,17.30
2018-05-24T22:54:12.454Z,17.21
2018-05-24T22:56:40.110Z,17.23
2018-05-24T22:59:07.727Z,17.23
2018-05-24T23:01:36.226Z,17.23
2018-05-24T23:04:04.205Z,17.22
2018-05-24T23:06:31.819Z,17.22
2018-05-24T23:08:59.412Z,17.18
2018-05-24T23:11:27.033Z,17.18
2018-05-24T23:13:54.658Z,17.09
2018-05-24T23:16:22.285Z,17.10
2018-05-24T23:18:49.903Z,17.03
2018-05-24T23:21:17.510Z,17.01
2018-05-24T23:23:45.135Z,17.03
2018-05-24T23:26:12.757Z,16.97
2018-05-24T23:28:40.382Z,16.94
2018-05-24T23:31:08.003Z,16.89
2018-05-24T23:33:35.630Z,16.92
2018-05-24T23:36:03.243Z,16.95
2018-05-24T23:38:30.882Z,16.81
2018-05-24T23:40:58.493Z,16.77
2018-05-24T23:43:26.125Z,16.75
2018-05-24T23:45:53.797Z,16.78
2018-05-24T23:48:21.520Z,16.80
2018-05-24T23:50:49.245Z,16.81
2018-05-24T23:53:16.975Z,16.79
2018-05-24T23:55:44.596Z,16.77
2018-05-24T23:58:12.354Z,16.73
